LSZA METAR and TAF | Updated Today

LSZA METAR

Lugano Airport

Observation time: 30 min. ago

LSZA 061950Z AUTO 20008KT 9999 FEW028 OVC032 04/M02 Q1031

Need help? Read our tutorial on how to read METARs or read the parsed version below.

Lugano Airport (LSZA) METAR

  • Weather conditions on Mon, 06 Feb 2023 19:50:00 +0000 (30 min. ago):
  • Present conditions: Dry
  • Clouds: A few at 853 meters; overcast sky at 975 meters
  • Visibility: Greater than 10 km
  • Wind: 200 degrees at 8 knots
  • Temperature: 4 celsius
  • Dew point: -2 celsius
  • Pressure: 1031 millibars
  • Remarks: None


Useful to know...

LSZA TAF

Lugano Airport

TAF LSZA 061425Z 0615/0624 18005KT 9999 BKN040 TEMPO 0619/0624 -SNRA PROB40 TEMPO 0619/0624 4000 -SN BKN010
Observation time: 5:55 hr. ago
Need help? Read our tutorial on how to read TAFs or read the parsed version below.

Parsed version of TAF for Lugano Airport (LSZA)

  • From 06 February at 15:00 UTC, to day 06 of the month at 24:00 UTC
  • Clouds: Broken sky at 1219 meters
  • Visibility: Greater than 10 km
  • Wind: 180 degrees at 5
  • Expected to arise temporarily, from 06 February at 19:00 UTC, to day 06 of the month at 24:00 UTC
  • Other: Light snow rain
  • Expected to arise temporarily, from 06 February at 19:00 UTC, to day 06 of the month at 24:00 UTC
    Probability of 40%
  • Clouds: Broken sky at 305 meters
  • Visibility: 4000 meters
  • Other: Light snow